sensor_id;sensor_type;location;lat;lon;timestamp;pressure;altitude;pressure_sealevel;temperature;humidity
13029;BME280;6581;42.662;23.402;2022-10-14T00:01:02;95699.06;;;13.98;71.18
13029;BME280;6581;42.662;23.402;2022-10-14T00:03:34;95697.16;;;13.99;71.46
13029;BME280;6581;42.662;23.402;2022-10-14T00:06:03;95691.44;;;13.97;72.37
13029;BME280;6581;42.662;23.402;2022-10-14T00:08:31;95696.03;;;14.00;71.98
13029;BME280;6581;42.662;23.402;2022-10-14T00:11:29;95691.50;;;14.07;71.23
13029;BME280;6581;42.662;23.402;2022-10-14T00:13:58;95688.81;;;14.00;71.65
13029;BME280;6581;42.662;23.402;2022-10-14T00:16:28;95685.03;;;14.01;71.56
13029;BME280;6581;42.662;23.402;2022-10-14T00:18:58;95678.53;;;14.02;71.72
13029;BME280;6581;42.662;23.402;2022-10-14T00:21:26;95681.59;;;14.01;72.06
13029;BME280;6581;42.662;23.402;2022-10-14T00:23:54;95678.16;;;14.00;72.52
13029;BME280;6581;42.662;23.402;2022-10-14T00:26:24;95672.47;;;14.02;72.67
13029;BME280;6581;42.662;23.402;2022-10-14T00:28:52;95673.97;;;13.99;72.75
13029;BME280;6581;42.662;23.402;2022-10-14T00:31:20;95675.47;;;13.97;72.93
13029;BME280;6581;42.662;23.402;2022-10-14T00:33:48;95681.59;;;14.01;73.11
13029;BME280;6581;42.662;23.402;2022-10-14T00:36:17;95681.19;;;14.02;73.46
13029;BME280;6581;42.662;23.402;2022-10-14T00:38:45;95681.94;;;13.99;73.98
13029;BME280;6581;42.662;23.402;2022-10-14T00:41:15;95675.13;;;14.02;74.14
13029;BME280;6581;42.662;23.402;2022-10-14T00:43:58;95675.84;;;13.99;74.75
13029;BME280;6581;42.662;23.402;2022-10-14T00:46:27;95681.19;;;14.02;74.76
13029;BME280;6581;42.662;23.402;2022-10-14T00:49:04;95676.56;;;13.92;75.53
13029;BME280;6581;42.662;23.402;2022-10-14T00:51:36;95676.53;;;13.89;75.49
13029;BME280;6581;42.662;23.402;2022-10-14T00:54:04;95675.78;;;13.88;75.85
13029;BME280;6581;42.662;23.402;2022-10-14T00:56:34;95673.06;;;13.85;76.16
13029;BME280;6581;42.662;23.402;2022-10-14T00:59:05;95669.69;;;13.88;76.26
13029;BME280;6581;42.662;23.402;2022-10-14T01:01:33;95670.06;;;13.90;76.30
13029;BME280;6581;42.662;23.402;2022-10-14T01:04:00;95662.09;;;13.90;76.71
13029;BME280;6581;42.662;23.402;2022-10-14T01:06:41;95663.97;;;13.86;77.37
13029;BME280;6581;42.662;23.402;2022-10-14T01:09:20;95656.72;;;13.83;77.87
13029;BME280;6581;42.662;23.402;2022-10-14T01:12:00;95654.03;;;13.79;78.14
13029;BME280;6581;42.662;23.402;2022-10-14T01:14:40;95647.97;;;13.82;78.30
13029;BME280;6581;42.662;23.402;2022-10-14T01:17:15;95655.94;;;13.82;78.51
13029;BME280;6581;42.662;23.402;2022-10-14T01:20:05;95636.13;;;13.76;79.75
13029;BME280;6581;42.662;23.402;2022-10-14T01:22:47;95635.22;;;13.61;80.29
13029;BME280;6581;42.662;23.402;2022-10-14T01:25:28;95630.66;;;13.62;80.60
13029;BME280;6581;42.662;23.402;2022-10-14T01:28:11;95631.06;;;13.60;80.75
13029;BME280;6581;42.662;23.402;2022-10-14T01:30:45;95624.56;;;13.61;80.54
13029;BME280;6581;42.662;23.402;2022-10-14T01:33:17;95624.19;;;13.59;80.65
13029;BME280;6581;42.662;23.402;2022-10-14T01:35:56;95624.56;;;13.61;80.79
13029;BME280;6581;42.662;23.402;2022-10-14T01:38:30;95623.78;;;13.57;81.08
13029;BME280;6581;42.662;23.402;2022-10-14T01:41:04;95631.81;;;13.61;81.39
13029;BME280;6581;42.662;23.402;2022-10-14T01:43:34;95624.56;;;13.58;81.77
13029;BME280;6581;42.662;23.402;2022-10-14T01:46:05;95616.97;;;13.60;81.68
13029;BME280;6581;42.662;23.402;2022-10-14T01:48:34;95620.34;;;13.57;81.57
13029;BME280;6581;42.662;23.402;2022-10-14T01:51:10;95608.59;;;13.58;81.63
13029;BME280;6581;42.662;23.402;2022-10-14T01:53:41;95612.78;;;13.59;81.65
13029;BME280;6581;42.662;23.402;2022-10-14T01:56:10;95610.09;;;13.55;82.04
13029;BME280;6581;42.662;23.402;2022-10-14T01:58:39;95614.66;;;13.55;82.13
13029;BME280;6581;42.662;23.402;2022-10-14T02:01:10;95616.44;;;13.44;82.32
13029;BME280;6581;42.662;23.402;2022-10-14T02:03:39;95615.66;;;13.40;82.91
13029;BME280;6581;42.662;23.402;2022-10-14T02:06:10;95612.63;;;13.41;82.51
13029;BME280;6581;42.662;23.402;2022-10-14T02:09:02;95613.38;;;13.38;82.65
13029;BME280;6581;42.662;23.402;2022-10-14T02:11:37;95614.56;;;13.44;82.76
13029;BME280;6581;42.662;23.402;2022-10-14T02:14:11;95614.88;;;13.39;82.81
13029;BME280;6581;42.662;23.402;2022-10-14T02:16:48;95613.41;;;13.42;82.59
13029;BME280;6581;42.662;23.402;2022-10-14T02:19:24;95606.97;;;13.43;82.55
13029;BME280;6581;42.662;23.402;2022-10-14T02:21:58;95613.03;;;13.43;82.51
13029;BME280;6581;42.662;23.402;2022-10-14T02:24:39;95612.34;;;13.50;82.16
13029;BME280;6581;42.662;23.402;2022-10-14T02:27:10;95608.13;;;13.49;82.31
13029;BME280;6581;42.662;23.402;2022-10-14T02:29:41;95608.13;;;13.49;82.69
13029;BME280;6581;42.662;23.402;2022-10-14T02:32:13;95613.44;;;13.45;82.84
13029;BME280;6581;42.662;23.402;2022-10-14T02:34:42;95605.03;;;13.43;82.93
13029;BME280;6581;42.662;23.402;2022-10-14T02:37:12;95602.31;;;13.36;83.39
13029;BME280;6581;42.662;23.402;2022-10-14T02:39:45;95600.34;;;13.29;83.73
13029;BME280;6581;42.662;23.402;2022-10-14T02:42:14;95599.22;;;13.30;83.33
13029;BME280;6581;42.662;23.402;2022-10-14T02:44:51;95605.72;;;13.33;83.46
13029;BME280;6581;42.662;23.402;2022-10-14T02:47:20;95599.25;;;13.34;83.40
13029;BME280;6581;42.662;23.402;2022-10-14T02:49:48;95598.44;;;13.26;83.39
13029;BME280;6581;42.662;23.402;2022-10-14T02:52:16;95601.78;;;13.20;83.31
13029;BME280;6581;42.662;23.402;2022-10-14T02:54:44;95597.22;;;13.20;83.69
13029;BME280;6581;42.662;23.402;2022-10-14T02:57:11;95594.22;;;13.22;83.66
13029;BME280;6581;42.662;23.402;2022-10-14T02:59:38;95598.31;;;13.16;83.66
13029;BME280;6581;42.662;23.402;2022-10-14T03:02:31;95585.28;;;13.07;84.24
13029;BME280;6581;42.662;23.402;2022-10-14T03:04:58;95581.50;;;13.08;84.30
13029;BME280;6581;42.662;23.402;2022-10-14T03:07:27;95588.00;;;13.11;84.21
13029;BME280;6581;42.662;23.402;2022-10-14T03:09:57;95581.06;;;13.03;85.36
13029;BME280;6581;42.662;23.402;2022-10-14T03:12:25;95590.94;;;13.02;85.31
13029;BME280;6581;42.662;23.402;2022-10-14T03:14:54;95592.13;;;13.05;85.31
13029;BME280;6581;42.662;23.402;2022-10-14T03:17:23;95591.31;;;13.01;85.43
13029;BME280;6581;42.662;23.402;2022-10-14T03:19:53;95588.25;;;12.99;86.05
13029;BME280;6581;42.662;23.402;2022-10-14T03:22:20;95586.66;;;12.91;85.97
13029;BME280;6581;42.662;23.402;2022-10-14T03:24:47;95585.16;;;12.93;85.27
13029;BME280;6581;42.662;23.402;2022-10-14T03:27:27;95579.44;;;12.91;85.25
13029;BME280;6581;42.662;23.402;2022-10-14T03:29:59;95581.38;;;12.94;84.69
13029;BME280;6581;42.662;23.402;2022-10-14T03:32:26;95580.28;;;12.99;84.85
13029;BME280;6581;42.662;23.402;2022-10-14T03:35:33;95581.34;;;12.91;85.30
13029;BME280;6581;42.662;23.402;2022-10-14T03:38:03;95581.38;;;12.94;85.25
13029;BME280;6581;42.662;23.402;2022-10-14T03:40:33;95587.03;;;12.93;85.19
13029;BME280;6581;42.662;23.402;2022-10-14T03:43:04;95588.59;;;12.94;85.00
13029;BME280;6581;42.662;23.402;2022-10-14T03:45:42;95589.78;;;13.00;84.75
13029;BME280;6581;42.662;23.402;2022-10-14T03:48:11;95586.34;;;12.96;84.75
13029;BME280;6581;42.662;23.402;2022-10-14T03:50:40;95584.81;;;12.95;84.79
13029;BME280;6581;42.662;23.402;2022-10-14T03:53:10;95586.69;;;12.94;84.61
13029;BME280;6581;42.662;23.402;2022-10-14T03:55:37;95582.78;;;12.84;85.04
13029;BME280;6581;42.662;23.402;2022-10-14T03:58:05;95580.88;;;12.81;84.99
13029;BME280;6581;42.662;23.402;2022-10-14T04:00:34;95578.97;;;12.82;85.06
13029;BME280;6581;42.662;23.402;2022-10-14T04:03:20;95570.91;;;12.75;85.32
13029;BME280;6581;42.662;23.402;2022-10-14T04:05:48;95565.66;;;12.78;85.97
13029;BME280;6581;42.662;23.402;2022-10-14T04:08:45;95570.16;;;12.74;85.72
13029;BME280;6581;42.662;23.402;2022-10-14T04:11:27;95581.16;;;12.73;86.13
13029;BME280;6581;42.662;23.402;2022-10-14T04:14:00;95575.47;;;12.74;86.91
13029;BME280;6581;42.662;23.402;2022-10-14T04:16:29;95572.88;;;12.78;86.85
13029;BME280;6581;42.662;23.402;2022-10-14T04:19:05;95573.19;;;12.73;86.52
13029;BME280;6581;42.662;23.402;2022-10-14T04:21:34;95559.91;;;12.73;86.35
13029;BME280;6581;42.662;23.402;2022-10-14T04:24:01;95559.56;;;12.78;85.97
13029;BME280;6581;42.662;23.402;2022-10-14T04:26:57;95554.97;;;12.75;86.07
13029;BME280;6581;42.662;23.402;2022-10-14T04:29:34;95552.75;;;12.80;85.60
13029;BME280;6581;42.662;23.402;2022-10-14T04:32:08;95546.28;;;12.78;85.48
13029;BME280;6581;42.662;23.402;2022-10-14T04:34:36;95555.69;;;12.72;85.66
13029;BME280;6581;42.662;23.402;2022-10-14T04:37:06;95555.34;;;12.73;85.91
13029;BME280;6581;42.662;23.402;2022-10-14T04:39:46;95558.34;;;12.72;86.22
13029;BME280;6581;42.662;23.402;2022-10-14T04:42:13;95549.66;;;12.75;86.31
13029;BME280;6581;42.662;23.402;2022-10-14T04:44:43;95555.03;;;12.78;85.98
13029;BME280;6581;42.662;23.402;2022-10-14T04:47:11;95550.03;;;12.73;85.67
13029;BME280;6581;42.662;23.402;2022-10-14T04:49:38;95543.56;;;12.74;85.43
13029;BME280;6581;42.662;23.402;2022-10-14T04:52:15;95544.75;;;12.77;84.82
13029;BME280;6581;42.662;23.402;2022-10-14T04:55:06;95544.72;;;12.73;84.79
13029;BME280;6581;42.662;23.402;2022-10-14T04:57:40;95539.75;;;12.72;84.54
13029;BME280;6581;42.662;23.402;2022-10-14T05:00:11;95547.38;;;12.73;84.54
13029;BME280;6581;42.662;23.402;2022-10-14T05:02:52;95548.19;;;12.81;84.88
13029;BME280;6581;42.662;23.402;2022-10-14T05:05:26;95559.19;;;12.79;85.03
13029;BME280;6581;42.662;23.402;2022-10-14T05:07:57;95550.03;;;12.73;84.88
13029;BME280;6581;42.662;23.402;2022-10-14T05:10:33;95546.66;;;12.80;84.67
13029;BME280;6581;42.662;23.402;2022-10-14T05:13:02;95550.56;;;12.89;84.93
13029;BME280;6581;42.662;23.402;2022-10-14T05:15:36;95538.03;;;12.90;85.17
13029;BME280;6581;42.662;23.402;2022-10-14T05:18:09;95547.13;;;12.89;84.99
13029;BME280;6581;42.662;23.402;2022-10-14T05:20:59;95546.44;;;12.92;85.54
13029;BME280;6581;42.662;23.402;2022-10-14T05:23:42;95543.50;;;13.08;84.90
13029;BME280;6581;42.662;23.402;2022-10-14T05:26:10;95553.53;;;13.18;83.66
13029;BME280;6581;42.662;23.402;2022-10-14T05:28:39;95546.75;;;13.27;82.37
13029;BME280;6581;42.662;23.402;2022-10-14T05:31:07;95546.78;;;13.31;81.91
13029;BME280;6581;42.662;23.402;2022-10-14T05:33:42;95545.75;;;13.43;81.10
13029;BME280;6581;42.662;23.402;2022-10-14T05:36:10;95550.00;;;13.51;80.70
13029;BME280;6581;42.662;23.402;2022-10-14T05:38:37;95550.78;;;13.58;80.18
13029;BME280;6581;42.662;23.402;2022-10-14T05:41:06;95544.03;;;13.68;79.03
13029;BME280;6581;42.662;23.402;2022-10-14T05:43:34;95548.66;;;13.78;78.06
13029;BME280;6581;42.662;23.402;2022-10-14T05:46:04;95553.28;;;13.88;77.43
13029;BME280;6581;42.662;23.402;2022-10-14T05:48:36;95556.34;;;13.94;76.96
13029;BME280;6581;42.662;23.402;2022-10-14T05:51:04;95562.88;;;14.03;77.05
13029;BME280;6581;42.662;23.402;2022-10-14T05:53:34;95556.78;;;14.03;77.25
13029;BME280;6581;42.662;23.402;2022-10-14T05:56:08;95561.56;;;13.76;77.80
13029;BME280;6581;42.662;23.402;2022-10-14T05:58:38;95568.00;;;13.75;78.92
13029;BME280;6581;42.662;23.402;2022-10-14T06:01:08;95571.06;;;13.73;79.51
13029;BME280;6581;42.662;23.402;2022-10-14T06:03:39;95578.28;;;13.73;80.32
13029;BME280;6581;42.662;23.402;2022-10-14T06:06:10;95575.72;;;13.87;80.08
13029;BME280;6581;42.662;23.402;2022-10-14T06:08:38;95579.19;;;13.95;79.37
13029;BME280;6581;42.662;23.402;2022-10-14T06:11:07;95572.72;;;13.92;79.29
13029;BME280;6581;42.662;23.402;2022-10-14T06:13:34;95571.94;;;13.92;79.40
13029;BME280;6581;42.662;23.402;2022-10-14T06:16:03;95579.91;;;13.88;78.84
13029;BME280;6581;42.662;23.402;2022-10-14T06:18:30;95579.50;;;13.86;79.23
13029;BME280;6581;42.662;23.402;2022-10-14T06:20:58;95580.19;;;13.76;79.08
13029;BME280;6581;42.662;23.402;2022-10-14T06:23:25;95582.19;;;13.86;78.95
13029;BME280;6581;42.662;23.402;2022-10-14T06:25:52;95579.53;;;13.93;78.36
13029;BME280;6581;42.662;23.402;2022-10-14T06:28:21;95583.41;;;13.99;78.09
13029;BME280;6581;42.662;23.402;2022-10-14T06:30:48;95584.47;;;13.88;78.78
13029;BME280;6581;42.662;23.402;2022-10-14T06:33:16;95588.19;;;13.80;79.24
13029;BME280;6581;42.662;23.402;2022-10-14T06:35:44;95587.47;;;13.79;78.21
13029;BME280;6581;42.662;23.402;2022-10-14T06:38:11;95582.88;;;13.80;78.18
13029;BME280;6581;42.662;23.402;2022-10-14T06:40:39;95582.19;;;13.86;78.05
13029;BME280;6581;42.662;23.402;2022-10-14T06:43:07;95577.63;;;13.90;78.01
13029;BME280;6581;42.662;23.402;2022-10-14T06:45:35;95587.25;;;14.02;77.56
13029;BME280;6581;42.662;23.402;2022-10-14T06:48:03;95580.78;;;14.06;77.98
13029;BME280;6581;42.662;23.402;2022-10-14T06:50:30;95587.41;;;14.34;77.07
13029;BME280;6581;42.662;23.402;2022-10-14T06:52:57;95589.78;;;14.49;74.56
13029;BME280;6581;42.662;23.402;2022-10-14T06:55:24;95582.88;;;14.38;75.20
13029;BME280;6581;42.662;23.402;2022-10-14T06:57:51;95584.44;;;14.46;75.17
13029;BME280;6581;42.662;23.402;2022-10-14T07:00:18;95587.88;;;14.50;74.51
13029;BME280;6581;42.662;23.402;2022-10-14T07:02:47;95587.88;;;14.46;74.72
13029;BME280;6581;42.662;23.402;2022-10-14T07:05:14;95581.47;;;14.61;74.57
13029;BME280;6581;42.662;23.402;2022-10-14T07:07:41;95580.72;;;14.68;72.88
13029;BME280;6581;42.662;23.402;2022-10-14T07:10:08;95584.09;;;14.51;73.19
13029;BME280;6581;42.662;23.402;2022-10-14T07:12:36;95577.25;;;14.60;73.82
13029;BME280;6581;42.662;23.402;2022-10-14T07:15:03;95578.75;;;14.58;73.69
13029;BME280;6581;42.662;23.402;2022-10-14T07:17:30;95584.03;;;14.40;73.61
13029;BME280;6581;42.662;23.402;2022-10-14T07:19:59;95588.66;;;14.54;74.45
13029;BME280;6581;42.662;23.402;2022-10-14T07:22:26;95584.44;;;14.46;73.94
13029;BME280;6581;42.662;23.402;2022-10-14T07:24:53;95579.38;;;14.30;74.37
13029;BME280;6581;42.662;23.402;2022-10-14T07:27:45;95579.41;;;14.34;73.78
13029;BME280;6581;42.662;23.402;2022-10-14T07:30:13;95577.88;;;14.33;72.69
13029;BME280;6581;42.662;23.402;2022-10-14T07:32:40;95577.56;;;14.38;72.55
13029;BME280;6581;42.662;23.402;2022-10-14T07:35:08;95581.78;;;14.53;71.63
13029;BME280;6581;42.662;23.402;2022-10-14T07:37:35;95582.97;;;14.55;71.52
13029;BME280;6581;42.662;23.402;2022-10-14T07:40:03;95582.19;;;14.58;70.49
13029;BME280;6581;42.662;23.402;2022-10-14T07:42:30;95582.25;;;14.66;69.65
13029;BME280;6581;42.662;23.402;2022-10-14T07:44:57;95576.50;;;14.63;70.42
13029;BME280;6581;42.662;23.402;2022-10-14T07:47:24;95577.69;;;14.73;68.87
13029;BME280;6581;42.662;23.402;2022-10-14T07:49:51;95578.88;;;14.90;68.42
13029;BME280;6581;42.662;23.402;2022-10-14T07:52:20;95575.06;;;14.94;69.28
13029;BME280;6581;42.662;23.402;2022-10-14T07:54:47;95572.06;;;15.03;69.20
13029;BME280;6581;42.662;23.402;2022-10-14T07:57:14;95574.34;;;15.04;68.53
13029;BME280;6581;42.662;23.402;2022-10-14T07:59:41;95574.34;;;15.04;68.59
13029;BME280;6581;42.662;23.402;2022-10-14T08:02:09;95575.53;;;15.39;67.67
13029;BME280;6581;42.662;23.402;2022-10-14T08:04:38;95566.78;;;15.52;67.21
13029;BME280;6581;42.662;23.402;2022-10-14T08:07:05;95567.91;;;15.48;66.91
13029;BME280;6581;42.662;23.402;2022-10-14T08:09:34;95570.97;;;15.68;66.29
13029;BME280;6581;42.662;23.402;2022-10-14T08:12:02;95574.78;;;15.81;64.80
13029;BME280;6581;42.662;23.402;2022-10-14T08:14:29;95572.47;;;15.86;64.56
13029;BME280;6581;42.662;23.402;2022-10-14T08:16:57;95572.47;;;16.01;64.11
13029;BME280;6581;42.662;23.402;2022-10-14T08:19:24;95568.25;;;16.10;64.14
13029;BME280;6581;42.662;23.402;2022-10-14T08:21:51;95576.25;;;16.21;63.43
13029;BME280;6581;42.662;23.402;2022-10-14T08:24:18;95575.47;;;16.20;62.18
13029;BME280;6581;42.662;23.402;2022-10-14T08:26:51;95570.84;;;16.35;61.63
13029;BME280;6581;42.662;23.402;2022-10-14T08:29:19;95569.69;;;16.32;60.46
13029;BME280;6581;42.662;23.402;2022-10-14T08:31:49;95569.72;;;16.36;60.30
13029;BME280;6581;42.662;23.402;2022-10-14T08:34:17;95569.72;;;16.25;60.34
13029;BME280;6581;42.662;23.402;2022-10-14T08:36:46;95570.47;;;16.40;60.33
13029;BME280;6581;42.662;23.402;2022-10-14T08:39:15;95576.66;;;16.12;59.20
13029;BME280;6581;42.662;23.402;2022-10-14T08:42:13;95564.41;;;16.15;59.99
13029;BME280;6581;42.662;23.402;2022-10-14T08:44:46;95575.09;;;16.18;57.32
13029;BME280;6581;42.662;23.402;2022-10-14T08:47:20;95573.97;;;16.05;57.22
13029;BME280;6581;42.662;23.402;2022-10-14T08:49:53;95581.25;;;15.73;58.62
13029;BME280;6581;42.662;23.402;2022-10-14T08:52:25;95575.56;;;15.71;59.54
13029;BME280;6581;42.662;23.402;2022-10-14T08:54:56;95580.84;;;16.06;58.04
13029;BME280;6581;42.662;23.402;2022-10-14T08:57:31;95578.94;;;16.17;58.57
13029;BME280;6581;42.662;23.402;2022-10-14T09:00:03;95575.41;;;16.38;57.03
13029;BME280;6581;42.662;23.402;2022-10-14T09:02:40;95579.56;;;16.53;56.52
13029;BME280;6581;42.662;23.402;2022-10-14T09:05:13;95578.06;;;16.41;56.68
13029;BME280;6581;42.662;23.402;2022-10-14T09:07:41;95568.63;;;16.16;59.14
13029;BME280;6581;42.662;23.402;2022-10-14T09:10:14;95567.78;;;16.44;59.68
13029;BME280;6581;42.662;23.402;2022-10-14T09:12:46;95568.94;;;16.35;59.90
13029;BME280;6581;42.662;23.402;2022-10-14T09:15:18;95569.31;;;16.37;59.98
13029;BME280;6581;42.662;23.402;2022-10-14T09:17:51;95562.44;;;16.36;60.44
13029;BME280;6581;42.662;23.402;2022-10-14T09:20:24;95562.53;;;16.12;60.69
13029;BME280;6581;42.662;23.402;2022-10-14T09:22:59;95563.59;;;16.35;60.63
13029;BME280;6581;42.662;23.402;2022-10-14T09:25:29;95572.34;;;16.47;60.61
13029;BME280;6581;42.662;23.402;2022-10-14T09:28:00;95565.91;;;16.26;60.69
13029;BME280;6581;42.662;23.402;2022-10-14T09:30:29;95565.19;;;16.08;62.47
13029;BME280;6581;42.662;23.402;2022-10-14T09:33:02;95564.41;;;16.18;62.44
13029;BME280;6581;42.662;23.402;2022-10-14T09:35:32;95556.72;;;16.38;61.80
13029;BME280;6581;42.662;23.402;2022-10-14T09:38:01;95565.06;;;16.51;62.09
13029;BME280;6581;42.662;23.402;2022-10-14T09:40:30;95558.56;;;16.59;61.28
13029;BME280;6581;42.662;23.402;2022-10-14T09:43:03;95560.81;;;16.71;59.56
13029;BME280;6581;42.662;23.402;2022-10-14T09:45:47;95558.19;;;16.53;59.89
13029;BME280;6581;42.662;23.402;2022-10-14T09:48:27;95566.97;;;16.54;61.32
13029;BME280;6581;42.662;23.402;2022-10-14T09:50:58;95554.31;;;16.65;61.32
13029;BME280;6581;42.662;23.402;2022-10-14T09:53:28;95552.91;;;16.35;62.87
13029;BME280;6581;42.662;23.402;2022-10-14T09:55:57;95551.78;;;16.29;63.31
13029;BME280;6581;42.662;23.402;2022-10-14T09:58:30;95557.81;;;16.58;62.51
13029;BME280;6581;42.662;23.402;2022-10-14T10:00:59;95554.41;;;16.40;60.47
13029;BME280;6581;42.662;23.402;2022-10-14T10:03:29;95548.63;;;16.52;61.55
13029;BME280;6581;42.662;23.402;2022-10-14T10:06:03;95551.28;;;16.56;63.75
13029;BME280;6581;42.662;23.402;2022-10-14T10:08:32;95553.56;;;16.68;61.72
13029;BME280;6581;42.662;23.402;2022-10-14T10:11:02;95550.84;;;16.75;60.87
13029;BME280;6581;42.662;23.402;2022-10-14T10:13:34;95552.66;;;16.92;60.62
13029;BME280;6581;42.662;23.402;2022-10-14T10:16:05;95553.03;;;16.94;59.31
13029;BME280;6581;42.662;23.402;2022-10-14T10:18:33;95554.50;;;17.02;59.23
13029;BME280;6581;42.662;23.402;2022-10-14T10:21:02;95546.44;;;17.13;58.35
13029;BME280;6581;42.662;23.402;2022-10-14T10:23:32;95551.47;;;16.97;57.29
13029;BME280;6581;42.662;23.402;2022-10-14T10:26:25;95544.19;;;17.01;54.14
13029;BME280;6581;42.662;23.402;2022-10-14T10:28:57;95549.47;;;17.18;54.42
13029;BME280;6581;42.662;23.402;2022-10-14T10:31:46;95535.44;;;17.48;54.30
13029;BME280;6581;42.662;23.402;2022-10-14T10:34:41;95535.59;;;17.79;54.04
13029;BME280;6581;42.662;23.402;2022-10-14T10:37:37;95525.75;;;17.68;54.32
13029;BME280;6581;42.662;23.402;2022-10-14T10:43:34;95519.88;;;17.81;54.46
13029;BME280;6581;42.662;23.402;2022-10-14T10:46:32;95522.34;;;17.61;52.90
13029;BME280;6581;42.662;23.402;2022-10-14T10:49:10;95512.78;;;17.12;53.95
13029;BME280;6581;42.662;23.402;2022-10-14T10:51:44;95510.41;;;17.21;52.92
13029;BME280;6581;42.662;23.402;2022-10-14T10:54:25;95507.91;;;17.48;53.45
13029;BME280;6581;42.662;23.402;2022-10-14T10:56:58;95523.81;;;17.69;51.65
13029;BME280;6581;42.662;23.402;2022-10-14T10:59:42;95512.22;;;17.83;47.72
13029;BME280;6581;42.662;23.402;2022-10-14T11:02:54;95517.25;;;17.73;46.10
13029;BME280;6581;42.662;23.402;2022-10-14T11:05:38;95509.94;;;17.81;45.68
13029;BME280;6581;42.662;23.402;2022-10-14T11:08:49;95508.44;;;17.77;45.71
13029;BME280;6581;42.662;23.402;2022-10-14T11:11:43;95496.97;;;17.76;44.48
13029;BME280;6581;42.662;23.402;2022-10-14T11:14:55;95495.50;;;17.68;41.33
13029;BME280;6581;42.662;23.402;2022-10-14T11:17:31;95494.22;;;17.80;42.08
13029;BME280;6581;42.662;23.402;2022-10-14T11:20:08;95489.44;;;17.98;41.62
13029;BME280;6581;42.662;23.402;2022-10-14T11:22:49;95489.66;;;18.14;38.94
13029;BME280;6581;42.662;23.402;2022-10-14T11:25:24;95481.66;;;18.10;38.92
13029;BME280;6581;42.662;23.402;2022-10-14T11:28:01;95483.38;;;18.28;38.11
13029;BME280;6581;42.662;23.402;2022-10-14T11:30:38;95472.09;;;18.09;37.73
13029;BME280;6581;42.662;23.402;2022-10-14T11:33:25;95469.72;;;18.15;38.34
13029;BME280;6581;42.662;23.402;2022-10-14T11:36:02;95465.75;;;18.27;38.08
13029;BME280;6581;42.662;23.402;2022-10-14T11:38:43;95454.16;;;18.37;36.87
13029;BME280;6581;42.662;23.402;2022-10-14T11:41:23;95454.50;;;18.08;40.33
13029;BME280;6581;42.662;23.402;2022-10-14T11:43:59;95454.81;;;18.14;38.46
13029;BME280;6581;42.662;23.402;2022-10-14T11:46:33;95456.69;;;18.17;39.00
13029;BME280;6581;42.662;23.402;2022-10-14T11:49:10;95453.50;;;18.26;38.63
13029;BME280;6581;42.662;23.402;2022-10-14T11:52:08;95445.34;;;18.36;37.44
13029;BME280;6581;42.662;23.402;2022-10-14T11:54:40;95449.50;;;18.41;36.82
13029;BME280;6581;42.662;23.402;2022-10-14T11:57:19;95444.94;;;18.07;39.57
13029;BME280;6581;42.662;23.402;2022-10-14T12:03:17;95442.56;;;18.43;37.16
13029;BME280;6581;42.662;23.402;2022-10-14T12:05:53;95440.22;;;18.15;39.36
13029;BME280;6581;42.662;23.402;2022-10-14T12:08:51;95438.69;;;18.17;39.12
13029;BME280;6581;42.662;23.402;2022-10-14T12:11:45;95435.03;;;17.67;39.89
13029;BME280;6581;42.662;23.402;2022-10-14T12:14:18;95437.06;;;17.59;40.70
13029;BME280;6581;42.662;23.402;2022-10-14T12:16:49;95436.28;;;17.55;42.09
13029;BME280;6581;42.662;23.402;2022-10-14T12:19:21;95434.06;;;17.47;41.35
13029;BME280;6581;42.662;23.402;2022-10-14T12:21:52;95440.66;;;17.39;41.77
13029;BME280;6581;42.662;23.402;2022-10-14T12:24:27;95434.19;;;17.36;41.94
13029;BME280;6581;42.662;23.402;2022-10-14T12:26:59;95439.31;;;17.61;40.85
13029;BME280;6581;42.662;23.402;2022-10-14T12:29:31;95445.81;;;17.63;42.12
13029;BME280;6581;42.662;23.402;2022-10-14T12:32:17;95453.03;;;17.66;42.53
13029;BME280;6581;42.662;23.402;2022-10-14T12:34:45;95441.88;;;17.71;42.69
13029;BME280;6581;42.662;23.402;2022-10-14T12:40:27;95449.22;;;17.23;43.19
13029;BME280;6581;42.662;23.402;2022-10-14T12:43:03;95452.09;;;17.43;42.80
13029;BME280;6581;42.662;23.402;2022-10-14T12:45:33;95453.09;;;17.56;42.81
13029;BME280;6581;42.662;23.402;2022-10-14T12:48:10;95444.78;;;17.47;42.88
13029;BME280;6581;42.662;23.402;2022-10-14T12:50:39;95435.97;;;17.50;42.25
13029;BME280;6581;42.662;23.402;2022-10-14T12:53:18;95443.41;;;17.73;41.88
13029;BME280;6581;42.662;23.402;2022-10-14T12:55:50;95440.25;;;17.81;42.00
13029;BME280;6581;42.662;23.402;2022-10-14T12:58:23;95442.91;;;17.85;41.43
13029;BME280;6581;42.662;23.402;2022-10-14T13:01:16;95447.81;;;17.90;42.05
13029;BME280;6581;42.662;23.402;2022-10-14T13:03:52;95443.53;;;17.96;41.75
13029;BME280;6581;42.662;23.402;2022-10-14T13:06:33;95438.25;;;17.89;41.63
13029;BME280;6581;42.662;23.402;2022-10-14T13:12:40;95436.00;;;17.84;41.21
13029;BME280;6581;42.662;23.402;2022-10-14T13:15:36;95435.06;;;18.01;41.98
13029;BME280;6581;42.662;23.402;2022-10-14T13:18:49;95439.88;;;18.13;42.06
13029;BME280;6581;42.662;23.402;2022-10-14T13:21:29;95434.53;;;18.13;42.02
13029;BME280;6581;42.662;23.402;2022-10-14T13:24:06;95434.53;;;18.13;41.24
13029;BME280;6581;42.662;23.402;2022-10-14T13:26:42;95430.19;;;18.23;41.21
13029;BME280;6581;42.662;23.402;2022-10-14T13:29:52;95438.63;;;18.21;40.58
13029;BME280;6581;42.662;23.402;2022-10-14T13:32:29;95440.16;;;18.22;41.23
13029;BME280;6581;42.662;23.402;2022-10-14T13:35:08;95432.19;;;18.15;41.44
13029;BME280;6581;42.662;23.402;2022-10-14T13:37:39;95433.53;;;18.30;41.16
13029;BME280;6581;42.662;23.402;2022-10-14T13:40:18;95443.66;;;18.19;40.34
13029;BME280;6581;42.662;23.402;2022-10-14T13:42:49;95441.81;;;18.12;41.06
13029;BME280;6581;42.662;23.402;2022-10-14T13:45:20;95430.31;;;18.12;40.37
13029;BME280;6581;42.662;23.402;2022-10-14T13:47:50;95436.22;;;18.00;38.19